createdAt,value
2019-05-09T00:06:47.234Z,15.90
2019-05-09T00:09:29.410Z,15.90
2019-05-09T00:12:07.322Z,15.90
2019-05-09T00:14:46.786Z,16.10
2019-05-09T00:17:24.576Z,16.30
2019-05-09T00:25:18.235Z,16.50
2019-05-09T00:33:30.477Z,16.30
2019-05-09T00:36:08.341Z,16.60
2019-05-09T00:44:07.865Z,16.60
2019-05-09T00:46:59.688Z,16.80
2019-05-09T00:49:39.154Z,16.80
2019-05-09T00:52:17.361Z,16.90
2019-05-09T00:54:58.866Z,17.10
2019-05-09T00:57:40.244Z,17.10
2019-05-09T01:00:24.112Z,17.10
2019-05-09T01:03:03.395Z,17.30
2019-05-09T01:05:39.880Z,17.10
2019-05-09T01:08:21.281Z,17.30
2019-05-09T01:13:37.926Z,18.10
2019-05-09T01:18:54.465Z,18.20
2019-05-09T01:21:33.873Z,17.80
2019-05-09T01:24:13.956Z,17.90
2019-05-09T01:26:54.010Z,17.60
2019-05-09T01:29:33.709Z,18.00
2019-05-09T01:32:19.708Z,18.00
2019-05-09T01:34:59.010Z,18.20
2019-05-09T01:42:50.586Z,18.20
2019-05-09T01:45:29.157Z,18.60
2019-05-09T01:48:08.615Z,18.40
2019-05-09T01:56:07.516Z,18.90
2019-05-09T01:58:45.329Z,19.00
2019-05-09T02:06:35.779Z,19.30
2019-05-09T02:09:15.482Z,19.20
2019-05-09T02:11:54.574Z,19.40
2019-05-09T02:14:39.196Z,19.30
2019-05-09T02:17:25.527Z,19.50
2019-05-09T02:20:04.014Z,19.70
2019-05-09T02:22:43.489Z,19.90
2019-05-09T02:25:24.077Z,19.90
2019-05-09T02:28:03.465Z,19.80
2019-05-09T02:30:44.776Z,19.70
2019-05-09T02:33:20.685Z,19.90
2019-05-09T02:36:01.917Z,20.00
2019-05-09T02:41:19.802Z,20.00
2019-05-09T02:43:58.530Z,20.50
2019-05-09T02:46:41.765Z,20.60
2019-05-09T02:54:32.840Z,21.10
2019-05-09T02:59:59.871Z,21.30
2019-05-09T03:03:04.060Z,21.30
2019-05-09T03:05:41.801Z,21.40
2019-05-09T03:08:19.848Z,21.50
2019-05-09T03:11:00.100Z,21.50
2019-05-09T03:13:39.489Z,21.60
2019-05-09T03:16:19.248Z,22.00
2019-05-09T03:18:59.031Z,21.90
2019-05-09T03:21:54.105Z,21.70
2019-05-09T03:24:35.623Z,21.90
2019-05-09T03:27:29.056Z,21.80
2019-05-09T03:30:11.959Z,21.80
2019-05-09T03:32:49.075Z,21.90
2019-05-09T03:35:28.883Z,21.90
2019-05-09T03:38:09.660Z,21.90
2019-05-09T03:40:48.535Z,21.80
2019-05-09T03:43:27.534Z,21.70
2019-05-09T03:46:17.964Z,21.80
2019-05-09T03:48:58.293Z,21.80
2019-05-09T03:51:37.926Z,21.90
2019-05-09T03:54:14.893Z,22.00
2019-05-09T03:56:59.675Z,22.30
2019-05-09T03:59:41.310Z,22.30
2019-05-09T04:02:20.170Z,22.40
2019-05-09T04:04:57.852Z,22.30
2019-05-09T04:07:41.464Z,21.80
2019-05-09T04:10:18.874Z,21.90
2019-05-09T04:12:59.645Z,22.30
2019-05-09T04:15:42.154Z,21.80
2019-05-09T04:18:24.848Z,22.00
2019-05-09T04:23:39.755Z,22.30
2019-05-09T04:26:34.681Z,21.30
2019-05-09T04:29:12.332Z,21.30
2019-05-09T04:31:49.918Z,21.40
2019-05-09T04:34:29.383Z,21.90
2019-05-09T04:37:12.104Z,21.60
2019-05-09T04:39:48.774Z,21.40
2019-05-09T04:42:28.269Z,21.40
2019-05-09T04:47:47.896Z,21.00
2019-05-09T04:50:27.813Z,21.00
2019-05-09T04:53:04.568Z,20.70
2019-05-09T04:58:19.164Z,21.10
2019-05-09T05:01:19.736Z,21.20
2019-05-09T05:03:58.906Z,21.10
2019-05-09T05:06:40.288Z,21.00
2019-05-09T05:09:15.767Z,21.20
2019-05-09T05:14:35.711Z,21.20
2019-05-09T05:22:34.395Z,20.90
2019-05-09T05:25:13.513Z,20.70
2019-05-09T05:27:54.373Z,20.90
2019-05-09T05:33:15.110Z,20.80
2019-05-09T05:36:00.255Z,21.10
2019-05-09T05:41:14.353Z,21.00
2019-05-09T05:43:52.252Z,20.90
2019-05-09T05:46:49.909Z,20.90
2019-05-09T05:49:27.887Z,20.90
2019-05-09T05:54:44.525Z,20.50
2019-05-09T06:00:09.776Z,20.40
2019-05-09T06:02:48.025Z,20.40
2019-05-09T06:05:27.825Z,20.20
2019-05-09T06:08:08.178Z,20.50
2019-05-09T06:10:48.303Z,20.40
2019-05-09T06:13:27.425Z,20.40
2019-05-09T06:18:43.977Z,20.90
2019-05-09T06:23:58.470Z,20.70
2019-05-09T06:26:37.372Z,20.90
2019-05-09T06:29:17.516Z,20.70
2019-05-09T06:32:21.813Z,20.60
2019-05-09T06:35:01.439Z,20.40
2019-05-09T06:37:39.327Z,20.50
2019-05-09T06:42:54.299Z,20.30
2019-05-09T06:45:48.665Z,20.10
2019-05-09T06:48:28.311Z,19.90
2019-05-09T06:51:07.321Z,19.90
2019-05-09T06:53:44.556Z,19.90
2019-05-09T06:56:24.107Z,19.70
2019-05-09T06:59:01.928Z,19.60
2019-05-09T07:07:50.978Z,19.20
2019-05-09T07:18:18.390Z,19.10
2019-05-09T07:20:57.640Z,19.30
2019-05-09T07:23:37.326Z,19.30
2019-05-09T07:26:19.822Z,19.00
2019-05-09T07:34:31.506Z,19.00
2019-05-09T07:37:09.175Z,18.90
2019-05-09T07:39:48.432Z,18.80
2019-05-09T07:42:28.376Z,19.30
2019-05-09T07:45:09.618Z,19.20
2019-05-09T07:47:47.935Z,19.30
2019-05-09T07:50:27.754Z,19.00
2019-05-09T07:53:05.546Z,18.90
2019-05-09T07:55:43.078Z,19.00
2019-05-09T07:58:22.160Z,18.90
2019-05-09T08:01:01.605Z,18.80
2019-05-09T08:03:39.630Z,19.10
2019-05-09T08:06:19.520Z,19.20
2019-05-09T08:08:59.153Z,19.40
2019-05-09T08:14:17.431Z,19.00
2019-05-09T08:16:57.848Z,18.70
2019-05-09T08:19:38.011Z,18.70
2019-05-09T08:22:15.068Z,18.90
2019-05-09T08:24:52.656Z,18.90
2019-05-09T08:27:30.327Z,18.80
2019-05-09T08:30:08.455Z,18.70
2019-05-09T08:32:47.997Z,18.80
2019-05-09T08:35:27.788Z,18.70
2019-05-09T08:38:04.293Z,18.80
2019-05-09T08:40:43.442Z,18.90
2019-05-09T08:43:22.503Z,18.90
2019-05-09T08:46:00.145Z,18.90
2019-05-09T08:48:38.013Z,18.90
2019-05-09T08:51:19.813Z,18.90
2019-05-09T08:53:57.810Z,18.90
2019-05-09T08:56:38.756Z,18.80
2019-05-09T08:59:18.303Z,18.80
2019-05-09T09:02:14.019Z,18.80
2019-05-09T09:04:38.410Z,18.80
2019-05-09T09:07:18.727Z,18.70
2019-05-09T09:09:54.884Z,18.70
2019-05-09T09:12:34.508Z,18.60
2019-05-09T09:15:11.920Z,18.60
2019-05-09T09:17:49.607Z,18.70
2019-05-09T09:20:28.876Z,18.30
2019-05-09T09:33:37.461Z,18.40
2019-05-09T09:36:13.984Z,18.40
2019-05-09T09:38:51.641Z,18.40
2019-05-09T09:44:09.349Z,18.20
2019-05-09T09:49:25.562Z,18.00
2019-05-09T09:52:03.348Z,18.20
2019-05-09T09:54:43.315Z,18.30
2019-05-09T09:57:22.700Z,18.30
2019-05-09T10:00:18.054Z,18.30
2019-05-09T10:02:58.611Z,18.30
2019-05-09T10:05:39.107Z,18.30
2019-05-09T10:08:18.389Z,18.20
2019-05-09T10:10:59.017Z,18.10
2019-05-09T10:13:41.123Z,18.20
2019-05-09T10:16:38.866Z,18.20
2019-05-09T10:19:24.370Z,18.20
2019-05-09T10:22:03.686Z,18.20
2019-05-09T10:24:44.065Z,18.20
2019-05-09T10:27:28.340Z,18.10
2019-05-09T10:30:08.949Z,18.20
2019-05-09T10:32:47.647Z,18.10
2019-05-09T10:35:33.661Z,18.10
2019-05-09T10:38:11.715Z,18.20
2019-05-09T10:40:53.323Z,18.10
2019-05-09T10:43:48.560Z,18.20
2019-05-09T10:46:53.731Z,18.00
2019-05-09T10:49:27.163Z,18.10
2019-05-09T10:54:43.081Z,18.20
2019-05-09T10:57:24.231Z,17.80
2019-05-09T11:00:02.185Z,18.10
2019-05-09T11:02:43.402Z,18.00
2019-05-09T11:07:59.162Z,17.90
2019-05-09T11:10:39.562Z,18.20
2019-05-09T11:13:19.409Z,18.20
2019-05-09T11:15:58.257Z,18.10
2019-05-09T11:18:38.478Z,17.90
2019-05-09T11:23:51.598Z,17.60
2019-05-09T11:26:34.473Z,17.80
2019-05-09T11:29:12.577Z,17.40
2019-05-09T11:31:55.119Z,17.80
2019-05-09T11:34:33.501Z,17.70
2019-05-09T11:37:13.553Z,17.90
2019-05-09T11:39:53.373Z,19.10
2019-05-09T11:45:10.219Z,17.40
2019-05-09T11:47:49.131Z,17.70
2019-05-09T11:50:28.934Z,17.70
2019-05-09T11:58:23.457Z,17.90
2019-05-09T12:01:04.983Z,18.10
2019-05-09T12:03:49.933Z,17.60
2019-05-09T12:06:30.818Z,17.80
2019-05-09T12:11:48.004Z,17.80
2019-05-09T12:14:27.661Z,17.60
2019-05-09T12:17:08.368Z,17.20
2019-05-09T12:19:48.799Z,17.50
2019-05-09T12:22:25.227Z,17.50
2019-05-09T12:25:02.860Z,17.40
2019-05-09T12:27:43.283Z,17.10
2019-05-09T12:30:22.987Z,17.30
2019-05-09T12:33:05.278Z,17.30
2019-05-09T12:35:43.374Z,17.10
2019-05-09T12:38:21.382Z,17.40
2019-05-09T12:41:00.583Z,17.10
2019-05-09T12:43:38.294Z,17.20
2019-05-09T12:48:54.687Z,17.20
2019-05-09T12:51:32.348Z,16.90
2019-05-09T12:54:10.017Z,17.10
2019-05-09T12:56:48.550Z,17.30
2019-05-09T12:59:33.413Z,17.20
2019-05-09T13:02:08.319Z,16.90
2019-05-09T13:04:47.673Z,16.60
2019-05-09T13:07:25.022Z,16.90
2019-05-09T13:10:04.555Z,17.00
2019-05-09T13:12:42.251Z,16.90
2019-05-09T13:17:59.827Z,16.70
2019-05-09T13:20:38.215Z,16.90
2019-05-09T13:25:53.918Z,16.50
2019-05-09T13:28:31.643Z,16.60
2019-05-09T13:31:11.780Z,16.20
2019-05-09T13:33:49.381Z,16.30
2019-05-09T13:36:28.484Z,16.40
2019-05-09T13:39:08.363Z,16.90
2019-05-09T13:44:25.061Z,16.30
2019-05-09T13:47:02.888Z,16.30
2019-05-09T13:49:40.639Z,16.30
2019-05-09T13:54:54.413Z,16.40
2019-05-09T13:57:36.326Z,16.40
2019-05-09T14:00:18.452Z,16.30
2019-05-09T14:05:30.523Z,16.30
2019-05-09T14:10:51.038Z,16.20
2019-05-09T14:13:28.916Z,15.80
2019-05-09T14:16:18.828Z,16.00
2019-05-09T14:18:48.522Z,16.10
2019-05-09T14:21:25.419Z,16.10
2019-05-09T14:24:14.082Z,16.10
2019-05-09T14:26:44.987Z,16.00
2019-05-09T14:29:24.134Z,16.10
2019-05-09T14:32:05.283Z,16.30
2019-05-09T14:37:22.757Z,16.00
2019-05-09T14:40:04.143Z,16.10
2019-05-09T14:42:41.279Z,16.10
2019-05-09T14:45:23.868Z,15.80
2019-05-09T14:48:03.478Z,16.20
2019-05-09T14:50:41.230Z,15.80
2019-05-09T14:53:28.141Z,15.80
2019-05-09T15:06:38.500Z,16.10
2019-05-09T15:30:25.364Z,16.30
2019-05-09T18:05:14.733Z,16.10
2019-05-09T18:07:52.299Z,16.00
2019-05-09T18:13:04.883Z,16.00
2019-05-09T18:15:42.581Z,16.00
2019-05-09T18:18:22.705Z,16.10
2019-05-09T18:21:00.433Z,15.70
2019-05-09T18:23:38.908Z,16.00
2019-05-09T18:26:21.690Z,15.90
2019-05-09T18:32:01.135Z,16.00
2019-05-09T18:34:39.804Z,15.80
2019-05-09T18:37:19.475Z,15.80
2019-05-09T18:39:58.996Z,15.90
2019-05-09T18:45:17.373Z,15.30
2019-05-09T18:47:57.842Z,15.90
2019-05-09T18:53:10.858Z,15.60
2019-05-09T18:55:48.692Z,15.30
2019-05-09T18:58:26.397Z,15.40
2019-05-09T19:01:03.911Z,15.00
2019-05-09T19:03:41.621Z,15.10
2019-05-09T19:06:19.164Z,15.00
2019-05-09T19:08:58.079Z,15.20
2019-05-09T19:11:42.201Z,15.10
2019-05-09T19:14:21.313Z,15.00
2019-05-09T19:17:23.435Z,15.00
2019-05-09T19:20:18.108Z,15.00
2019-05-09T19:22:55.772Z,15.00
2019-05-09T19:25:33.525Z,15.00
2019-05-09T19:28:11.284Z,15.00
2019-05-09T19:30:49.056Z,15.10
2019-05-09T19:33:28.453Z,15.20
2019-05-09T19:36:06.202Z,15.00
2019-05-09T19:38:43.880Z,15.10
2019-05-09T19:41:24.103Z,15.00
2019-05-09T19:44:03.571Z,14.90
2019-05-09T19:46:41.276Z,14.90
2019-05-09T19:49:27.263Z,14.80
2019-05-09T19:52:07.501Z,14.80
2019-05-09T19:54:45.218Z,14.40
2019-05-09T19:57:23.153Z,14.80
2019-05-09T20:00:03.323Z,14.70
2019-05-09T20:02:42.993Z,14.50
2019-05-09T20:05:20.895Z,14.70
2019-05-09T20:07:58.656Z,14.40
2019-05-09T20:10:52.322Z,14.60
2019-05-09T20:13:40.358Z,13.80
2019-05-09T20:16:19.434Z,14.10
2019-05-09T20:18:58.729Z,14.10
2019-05-09T20:21:38.696Z,14.10
2019-05-09T20:24:18.836Z,14.40
2019-05-09T20:32:09.587Z,13.60
2019-05-09T20:34:49.163Z,13.70
2019-05-09T20:37:29.267Z,13.80
2019-05-09T20:40:09.006Z,13.80
2019-05-09T20:42:46.824Z,14.10
2019-05-09T20:45:26.517Z,14.10
2019-05-09T20:48:06.519Z,14.20
2019-05-09T20:50:44.787Z,14.20
2019-05-09T20:53:22.476Z,14.40
2019-05-09T20:56:00.266Z,14.40
2019-05-09T20:58:39.379Z,14.40
2019-05-09T21:01:17.675Z,14.40
2019-05-09T21:04:00.135Z,14.40
2019-05-09T21:06:35.841Z,14.50
2019-05-09T21:09:17.154Z,14.60
2019-05-09T21:11:55.028Z,14.50
2019-05-09T21:14:32.887Z,14.40
2019-05-09T21:17:12.242Z,14.20
2019-05-09T21:19:52.880Z,14.30
2019-05-09T21:22:30.955Z,14.20
2019-05-09T21:25:10.756Z,14.20
2019-05-09T21:27:54.505Z,14.30
2019-05-09T21:30:32.421Z,14.50
2019-05-09T21:33:10.271Z,14.50
2019-05-09T21:35:49.784Z,14.60
2019-05-09T21:38:27.526Z,14.50
2019-05-09T21:41:05.173Z,15.00
2019-05-09T21:43:44.908Z,14.80
2019-05-09T21:46:22.416Z,14.90
2019-05-09T21:49:07.122Z,14.90
2019-05-09T21:54:21.526Z,14.00
2019-05-09T21:57:00.779Z,15.30
2019-05-09T21:59:38.907Z,15.50
2019-05-09T22:04:52.174Z,15.20
2019-05-09T22:07:31.898Z,15.20
2019-05-09T22:10:10.141Z,15.70
2019-05-09T22:12:48.041Z,15.70
2019-05-09T22:15:26.056Z,16.10
2019-05-09T22:18:03.583Z,15.80
2019-05-09T22:20:43.904Z,15.70
2019-05-09T22:23:21.501Z,15.50
2019-05-09T22:26:00.548Z,15.90
2019-05-09T22:28:40.183Z,15.80
2019-05-09T22:31:18.020Z,16.00
2019-05-09T22:36:30.908Z,16.40
2019-05-09T22:39:09.418Z,16.10
2019-05-09T22:41:47.118Z,16.40
2019-05-09T22:44:26.882Z,16.50
2019-05-09T22:47:04.748Z,16.40
2019-05-09T22:49:42.377Z,16.50
2019-05-09T22:52:21.327Z,16.60
2019-05-09T22:54:58.884Z,16.60
2019-05-09T23:00:13.276Z,16.70
2019-05-09T23:02:50.926Z,16.60
2019-05-09T23:05:32.458Z,16.70
2019-05-09T23:10:48.883Z,16.60
2019-05-09T23:18:38.418Z,16.60
2019-05-09T23:21:15.966Z,16.50
2019-05-09T23:29:10.944Z,16.40
2019-05-09T23:37:05.817Z,16.40
2019-05-09T23:39:46.164Z,16.00
2019-05-09T23:42:23.929Z,16.10
2019-05-09T23:52:47.540Z,15.50
